Terminal Aerodrome Forecast
Issued by NWS Jackson, KY

Home | Current Version | Previous Version | Text Only | Print | Product List | Glossary On
Versions: 1 2 3 4 5 6 7 8 9 10 11 12 13 14 15 16 17
145
FTUS43 KJKL 261939 AAC
TAFLOZ
TAF AMD
KLOZ 261939Z 2620/2718 23008KT 3SM -RA BR VCSH SCT013 BKN026 OVC060
     FM262300 VRB05KT 5SM -SHRA OVC030
     FM270000 20005KT P6SM VCSH BKN030
     FM270600 VRB04KT P6SM BKN050=

USA.gov is the U.S. government's official web portal to all federal, state and local government web resources and services.